Rechercher aéroport 
image banner adimage banner adimage banner ad
image banner ad

CL51 - Santa Rosa Memorial Hospital

Situé à Santa Rosa, United States

ICAO - CL51, IATA -

Données fournies par Airmate  

Information générale

Coordonnées: N38°26'37" W122°42'5"
Élévation : 208 feet MSL.
Variation magnétique : 16° East
Voir autres Aéroports à California

Données opérationnelles

Special qualification required
Heure actuelle UTC:
Heure actuelle locale:
METAR: KSTS 251553Z 00000KT 10SM OVC007 12/10 A2998 RMK AO2 CIG 006V010 SLP147 T01220100
TAF: KSTS 251121Z 2512/2612 VRB05KT P6SM OVC005 TEMPO 2512/2515 1SM BR OVC003 FM251700 VRB04KT P6SM FEW007 FM251900 19012KT P6SM FEW200 FM260200 16009KT P6SM SCT200 FM260500 VRB05KT P6SM OVC006
Voir NOTAMs / SUP AIP / TFR affectant cet aéroport [VIEW]
Fréquences de communication: [VIEW]

Pistes:

Coordonnées de l'aéroport

Adresse: Santa Rosa United States

Vue satellite de CL51